KGYR

Phoenix Goodyear Airport

Goodyear, Arizona, USA
METAR KGYR 201250Z 09004KT 10SM SCT120 BKN250 12/M01 A2983 RMK FIRST
Observed Flight Rules
Jan-20 @ 12:50 UTC (23 minutes ago) Visual Flight Rules
Wind Visibility Clouds
90° at 4 knots 10 miles
  • Scattered at 12,000' AGL
  • Broken at 25,000' AGL
Temperatures Readings
Current 12°C / 54°F
Dewpoint -1°C / 30°F
Humidity 41%
Altimeter 29.83" Hg
Pressure 1010 hPa
Elevation 295
METAR KGYR 201250Z 09004KT 10SM SCT120 BKN250 12/M01 A2983 RMK FIRST
Observed Flight Rules
Jan-20 @ 12:50 UTC
(23 minutes ago)
VFR
Wind Visibility
90° at 4 knots 10 miles
Clouds
  • Scattered at 12,000' AGL
  • Broken at 25,000' AGL
Temperature Dewpoint
12°C / 54°F -1°C / 30°F
Humidity Altimeter Pressure
41% 29.83" Hg 1010 hPa